Antelope, Montana
Current Conditions -  °F | °C
As of 3:52 AM on Sunday 21 Dec 2014 (Local Time) from KISN Reporting Station
Clear Clear  
Wind Chill: 16°   Ceiling: Unl
Heat Index: 16°   Visibility: 10mi
Dew Point: 13°   Wind: 0mph
Humidity: 88%   Direction: NA
Pressure: 29.56"   Gusts: NA
Location:  48.69°N, 104.46°W
Report Text: KISN 211052Z AUTO 00000KT 10SM CLR M09/M11 A2956 RMK AO2 SLP039 T10891106 $
Loading
Personal Weather Stations






























Interactive Weather Map New forecast layout! Learn more

10-Day Weather Forecast

Advertisements
Track Severe Weather on mobile